Bowling Green, Kentucky
Current Conditions -  °F | °C
As of 3:53 AM on Friday 21 Nov 2014 (Local Time) from KBWG Reporting Station
Clear Clear  
Wind Chill: 22°   Ceiling: Unl
Heat Index: 22°   Visibility: 7mi
Dew Point: 19°   Wind: 0mph
Humidity: 89%   Direction: NA
Pressure: 30.41"   Gusts: NA
Location:  36.99°N, 86.44°W
Report Text: KBWG 210953Z AUTO 00000KT 7SM CLR M06/M07 A3041 RMK AO2 SLP303 I1000 T10561072
Loading
Personal Weather Stations






























Interactive Weather Map New forecast layout! Learn more

10-Day Weather Forecast

Advertisements
Track Severe Weather on mobile